sensor_id;sensor_type;location;lat;lon;timestamp;temperature;humidity
78611;SHT30;67932;50.474;4.436;2023-07-31T00:01:12;16.50;89.81
78611;SHT30;67932;50.474;4.436;2023-07-31T00:03:38;16.52;90.06
78611;SHT30;67932;50.474;4.436;2023-07-31T00:06:05;16.50;90.72
78611;SHT30;67932;50.474;4.436;2023-07-31T00:08:31;16.49;90.40
78611;SHT30;67932;50.474;4.436;2023-07-31T00:10:59;16.52;90.48
78611;SHT30;67932;50.474;4.436;2023-07-31T00:13:25;16.45;90.59
78611;SHT30;67932;50.474;4.436;2023-07-31T00:15:51;16.49;90.65
78611;SHT30;67932;50.474;4.436;2023-07-31T00:18:17;16.46;90.70
78611;SHT30;67932;50.474;4.436;2023-07-31T00:20:43;16.49;90.74
78611;SHT30;67932;50.474;4.436;2023-07-31T00:23:10;16.50;90.59
78611;SHT30;67932;50.474;4.436;2023-07-31T00:25:36;16.55;90.34
78611;SHT30;67932;50.474;4.436;2023-07-31T00:28:02;16.55;90.22
78611;SHT30;67932;50.474;4.436;2023-07-31T00:30:29;16.52;90.07
78611;SHT30;67932;50.474;4.436;2023-07-31T00:32:55;16.59;90.24
78611;SHT30;67932;50.474;4.436;2023-07-31T00:35:21;16.56;90.22
78611;SHT30;67932;50.474;4.436;2023-07-31T00:37:47;16.57;90.20
78611;SHT30;67932;50.474;4.436;2023-07-31T00:40:14;16.57;90.17
78611;SHT30;67932;50.474;4.436;2023-07-31T00:42:40;16.57;90.29
78611;SHT30;67932;50.474;4.436;2023-07-31T00:45:06;16.55;90.32
78611;SHT30;67932;50.474;4.436;2023-07-31T00:47:33;16.59;90.25
78611;SHT30;67932;50.474;4.436;2023-07-31T00:49:59;16.56;90.07
78611;SHT30;67932;50.474;4.436;2023-07-31T00:52:25;16.56;90.19
78611;SHT30;67932;50.474;4.436;2023-07-31T00:54:52;16.55;90.08
78611;SHT30;67932;50.474;4.436;2023-07-31T00:57:18;16.55;90.27
78611;SHT30;67932;50.474;4.436;2023-07-31T00:59:44;16.55;89.87
78611;SHT30;67932;50.474;4.436;2023-07-31T01:02:12;16.57;89.92
78611;SHT30;67932;50.474;4.436;2023-07-31T01:04:39;16.56;90.28
78611;SHT30;67932;50.474;4.436;2023-07-31T01:07:17;16.56;90.12
78611;SHT30;67932;50.474;4.436;2023-07-31T01:12:18;16.52;90.45
78611;SHT30;67932;50.474;4.436;2023-07-31T01:15:01;16.49;90.34
78611;SHT30;67932;50.474;4.436;2023-07-31T01:17:28;16.49;90.42
78611;SHT30;67932;50.474;4.436;2023-07-31T01:19:57;16.50;90.69
78611;SHT30;67932;50.474;4.436;2023-07-31T01:28:23;16.46;90.55
78611;SHT30;67932;50.474;4.436;2023-07-31T01:30:50;16.47;90.62
78611;SHT30;67932;50.474;4.436;2023-07-31T01:33:17;16.45;90.79
78611;SHT30;67932;50.474;4.436;2023-07-31T01:35:48;16.45;90.64
78611;SHT30;67932;50.474;4.436;2023-07-31T01:38:15;16.45;90.23
78611;SHT30;67932;50.474;4.436;2023-07-31T01:40:44;16.46;90.47
78611;SHT30;67932;50.474;4.436;2023-07-31T01:43:11;16.46;90.43
78611;SHT30;67932;50.474;4.436;2023-07-31T01:45:37;16.42;90.62
78611;SHT30;67932;50.474;4.436;2023-07-31T01:48:03;16.40;90.76
78611;SHT30;67932;50.474;4.436;2023-07-31T01:50:30;16.39;90.78
78611;SHT30;67932;50.474;4.436;2023-07-31T01:52:57;16.33;90.75
78611;SHT30;67932;50.474;4.436;2023-07-31T01:55:23;16.39;91.00
78611;SHT30;67932;50.474;4.436;2023-07-31T01:57:49;16.34;90.51
78611;SHT30;67932;50.474;4.436;2023-07-31T02:00:16;16.37;90.66
78611;SHT30;67932;50.474;4.436;2023-07-31T02:02:42;16.36;90.33
78611;SHT30;67932;50.474;4.436;2023-07-31T02:05:08;16.36;90.60
78611;SHT30;67932;50.474;4.436;2023-07-31T02:07:34;16.37;89.97
78611;SHT30;67932;50.474;4.436;2023-07-31T02:10:01;16.42;90.38
78611;SHT30;67932;50.474;4.436;2023-07-31T02:12:27;16.39;90.49
78611;SHT30;67932;50.474;4.436;2023-07-31T02:14:56;16.37;89.97
78611;SHT30;67932;50.474;4.436;2023-07-31T02:17:22;16.39;89.95
78611;SHT30;67932;50.474;4.436;2023-07-31T02:19:49;16.40;89.88
78611;SHT30;67932;50.474;4.436;2023-07-31T02:22:15;16.40;90.09
78611;SHT30;67932;50.474;4.436;2023-07-31T02:24:41;16.40;89.88
78611;SHT30;67932;50.474;4.436;2023-07-31T02:27:07;16.40;89.60
78611;SHT30;67932;50.474;4.436;2023-07-31T02:29:34;16.42;89.78
78611;SHT30;67932;50.474;4.436;2023-07-31T02:32:00;16.39;89.90
78611;SHT30;67932;50.474;4.436;2023-07-31T02:34:26;16.40;89.66
78611;SHT30;67932;50.474;4.436;2023-07-31T02:36:52;16.42;89.98
78611;SHT30;67932;50.474;4.436;2023-07-31T02:39:19;16.40;89.82
78611;SHT30;67932;50.474;4.436;2023-07-31T02:41:45;16.34;89.83
78611;SHT30;67932;50.474;4.436;2023-07-31T02:44:11;16.39;90.04
78611;SHT30;67932;50.474;4.436;2023-07-31T02:46:40;16.39;89.78
78611;SHT30;67932;50.474;4.436;2023-07-31T02:49:06;16.40;89.87
78611;SHT30;67932;50.474;4.436;2023-07-31T02:51:32;16.36;89.95
78611;SHT30;67932;50.474;4.436;2023-07-31T02:53:58;16.36;90.27
78611;SHT30;67932;50.474;4.436;2023-07-31T02:56:25;16.37;90.14
78611;SHT30;67932;50.474;4.436;2023-07-31T02:58:51;16.40;90.10
78611;SHT30;67932;50.474;4.436;2023-07-31T03:01:17;16.39;90.07
78611;SHT30;67932;50.474;4.436;2023-07-31T03:03:43;16.42;90.30
78611;SHT30;67932;50.474;4.436;2023-07-31T03:06:10;16.45;90.10
78611;SHT30;67932;50.474;4.436;2023-07-31T03:08:36;16.45;89.82
78611;SHT30;67932;50.474;4.436;2023-07-31T03:11:02;16.42;89.93
78611;SHT30;67932;50.474;4.436;2023-07-31T03:13:28;16.49;89.90
78611;SHT30;67932;50.474;4.436;2023-07-31T03:15:55;16.46;89.85
78611;SHT30;67932;50.474;4.436;2023-07-31T03:18:21;16.50;89.59
78611;SHT30;67932;50.474;4.436;2023-07-31T03:20:47;16.46;89.66
78611;SHT30;67932;50.474;4.436;2023-07-31T03:23:13;16.47;89.80
78611;SHT30;67932;50.474;4.436;2023-07-31T03:25:54;16.45;89.83
78611;SHT30;67932;50.474;4.436;2023-07-31T03:28:21;16.42;89.96
78611;SHT30;67932;50.474;4.436;2023-07-31T03:30:47;16.42;89.81
78611;SHT30;67932;50.474;4.436;2023-07-31T03:33:13;16.45;89.47
78611;SHT30;67932;50.474;4.436;2023-07-31T03:35:39;16.43;89.37
78611;SHT30;67932;50.474;4.436;2023-07-31T03:38:06;16.46;89.13
78611;SHT30;67932;50.474;4.436;2023-07-31T03:40:32;16.42;89.57
78611;SHT30;67932;50.474;4.436;2023-07-31T03:42:58;16.45;89.21
78611;SHT30;67932;50.474;4.436;2023-07-31T03:45:24;16.46;89.08
78611;SHT30;67932;50.474;4.436;2023-07-31T03:47:51;16.45;89.37
78611;SHT30;67932;50.474;4.436;2023-07-31T03:50:17;16.42;89.13
78611;SHT30;67932;50.474;4.436;2023-07-31T03:52:43;16.43;88.58
78611;SHT30;67932;50.474;4.436;2023-07-31T03:55:10;16.49;88.68
78611;SHT30;67932;50.474;4.436;2023-07-31T03:57:36;16.49;88.38
78611;SHT30;67932;50.474;4.436;2023-07-31T04:00:02;16.49;88.37
78611;SHT30;67932;50.474;4.436;2023-07-31T04:02:29;16.46;88.69
78611;SHT30;67932;50.474;4.436;2023-07-31T04:04:55;16.46;88.96
78611;SHT30;67932;50.474;4.436;2023-07-31T04:07:22;16.40;89.14
78611;SHT30;67932;50.474;4.436;2023-07-31T04:09:48;16.40;88.60
78611;SHT30;67932;50.474;4.436;2023-07-31T04:12:14;16.40;88.72
78611;SHT30;67932;50.474;4.436;2023-07-31T04:14:40;16.43;88.58
78611;SHT30;67932;50.474;4.436;2023-07-31T04:17:07;16.40;88.95
78611;SHT30;67932;50.474;4.436;2023-07-31T04:19:33;16.39;89.07
78611;SHT30;67932;50.474;4.436;2023-07-31T04:21:59;16.37;89.22
78611;SHT30;67932;50.474;4.436;2023-07-31T04:24:25;16.33;89.48
78611;SHT30;67932;50.474;4.436;2023-07-31T04:26:53;16.30;89.76
78611;SHT30;67932;50.474;4.436;2023-07-31T04:29:19;16.29;90.03
78611;SHT30;67932;50.474;4.436;2023-07-31T04:31:47;16.22;90.55
78611;SHT30;67932;50.474;4.436;2023-07-31T04:34:13;16.16;90.67
78611;SHT30;67932;50.474;4.436;2023-07-31T04:36:39;16.15;90.54
78611;SHT30;67932;50.474;4.436;2023-07-31T04:39:06;16.12;90.87
78611;SHT30;67932;50.474;4.436;2023-07-31T04:41:32;16.12;90.96
78611;SHT30;67932;50.474;4.436;2023-07-31T04:43:58;16.13;90.94
78611;SHT30;67932;50.474;4.436;2023-07-31T04:46:25;16.12;91.07
78611;SHT30;67932;50.474;4.436;2023-07-31T04:48:51;16.09;91.34
78611;SHT30;67932;50.474;4.436;2023-07-31T04:51:17;16.06;91.08
78611;SHT30;67932;50.474;4.436;2023-07-31T04:53:43;16.06;90.76
78611;SHT30;67932;50.474;4.436;2023-07-31T04:56:10;16.09;91.27
78611;SHT30;67932;50.474;4.436;2023-07-31T04:58:36;16.05;90.97
78611;SHT30;67932;50.474;4.436;2023-07-31T05:01:02;16.05;91.26
78611;SHT30;67932;50.474;4.436;2023-07-31T05:03:28;16.04;91.80
78611;SHT30;67932;50.474;4.436;2023-07-31T05:05:54;15.98;91.65
78611;SHT30;67932;50.474;4.436;2023-07-31T05:08:21;16.01;91.61
78611;SHT30;67932;50.474;4.436;2023-07-31T05:10:47;16.01;91.56
78611;SHT30;67932;50.474;4.436;2023-07-31T05:13:13;16.06;91.40
78611;SHT30;67932;50.474;4.436;2023-07-31T05:15:40;16.02;91.52
78611;SHT30;67932;50.474;4.436;2023-07-31T05:18:07;16.06;91.67
78611;SHT30;67932;50.474;4.436;2023-07-31T05:20:33;16.09;91.23
78611;SHT30;67932;50.474;4.436;2023-07-31T05:22:59;16.10;91.16
78611;SHT30;67932;50.474;4.436;2023-07-31T05:25:25;16.09;91.47
78611;SHT30;67932;50.474;4.436;2023-07-31T05:27:52;16.04;91.53
78611;SHT30;67932;50.474;4.436;2023-07-31T05:30:18;16.04;91.79
78611;SHT30;67932;50.474;4.436;2023-07-31T05:32:44;16.02;91.52
78611;SHT30;67932;50.474;4.436;2023-07-31T05:35:10;16.02;91.38
78611;SHT30;67932;50.474;4.436;2023-07-31T05:37:37;16.04;91.65
78611;SHT30;67932;50.474;4.436;2023-07-31T05:40:03;16.01;91.35
78611;SHT30;67932;50.474;4.436;2023-07-31T05:42:30;16.06;91.54
78611;SHT30;67932;50.474;4.436;2023-07-31T05:44:56;16.10;91.64
78611;SHT30;67932;50.474;4.436;2023-07-31T05:47:22;16.15;91.15
78611;SHT30;67932;50.474;4.436;2023-07-31T05:49:49;16.13;90.43
78611;SHT30;67932;50.474;4.436;2023-07-31T05:52:18;16.15;91.21
78611;SHT30;67932;50.474;4.436;2023-07-31T05:54:45;16.13;90.71
78611;SHT30;67932;50.474;4.436;2023-07-31T05:57:14;16.12;91.17
78611;SHT30;67932;50.474;4.436;2023-07-31T05:59:40;16.15;91.17
78611;SHT30;67932;50.474;4.436;2023-07-31T06:02:06;16.15;90.62
78611;SHT30;67932;50.474;4.436;2023-07-31T06:04:33;16.10;90.20
78611;SHT30;67932;50.474;4.436;2023-07-31T06:07:00;16.15;90.77
78611;SHT30;67932;50.474;4.436;2023-07-31T06:09:26;16.17;90.10
78611;SHT30;67932;50.474;4.436;2023-07-31T06:11:52;16.13;90.87
78611;SHT30;67932;50.474;4.436;2023-07-31T06:14:19;16.12;90.24
78611;SHT30;67932;50.474;4.436;2023-07-31T06:16:45;16.05;90.53
78611;SHT30;67932;50.474;4.436;2023-07-31T06:19:12;16.02;90.68
78611;SHT30;67932;50.474;4.436;2023-07-31T06:21:39;15.99;90.32
78611;SHT30;67932;50.474;4.436;2023-07-31T06:24:08;15.99;90.25
78611;SHT30;67932;50.474;4.436;2023-07-31T06:26:35;16.05;89.83
78611;SHT30;67932;50.474;4.436;2023-07-31T06:29:01;16.09;89.94
78611;SHT30;67932;50.474;4.436;2023-07-31T06:31:27;16.05;89.74
78611;SHT30;67932;50.474;4.436;2023-07-31T06:33:54;16.08;90.07
78611;SHT30;67932;50.474;4.436;2023-07-31T06:36:21;16.09;89.76
78611;SHT30;67932;50.474;4.436;2023-07-31T06:38:47;16.09;89.64
78611;SHT30;67932;50.474;4.436;2023-07-31T06:41:13;16.06;89.21
78611;SHT30;67932;50.474;4.436;2023-07-31T06:43:40;16.09;89.39
78611;SHT30;67932;50.474;4.436;2023-07-31T06:46:07;16.12;89.34
78611;SHT30;67932;50.474;4.436;2023-07-31T06:48:35;16.12;89.40
78611;SHT30;67932;50.474;4.436;2023-07-31T06:51:02;16.09;89.22
78611;SHT30;67932;50.474;4.436;2023-07-31T06:53:29;16.16;89.33
78611;SHT30;67932;50.474;4.436;2023-07-31T06:55:55;16.10;89.13
78611;SHT30;67932;50.474;4.436;2023-07-31T06:58:21;16.19;89.35
78611;SHT30;67932;50.474;4.436;2023-07-31T07:00:48;16.27;89.03
78611;SHT30;67932;50.474;4.436;2023-07-31T07:03:17;16.22;88.91
78611;SHT30;67932;50.474;4.436;2023-07-31T07:05:43;16.29;88.41
78611;SHT30;67932;50.474;4.436;2023-07-31T07:08:10;16.36;87.95
78611;SHT30;67932;50.474;4.436;2023-07-31T07:10:36;16.34;88.07
78611;SHT30;67932;50.474;4.436;2023-07-31T07:13:02;16.45;87.45
78611;SHT30;67932;50.474;4.436;2023-07-31T07:15:29;16.52;87.31
78611;SHT30;67932;50.474;4.436;2023-07-31T07:17:56;16.56;86.44
78611;SHT30;67932;50.474;4.436;2023-07-31T07:20:22;16.59;86.52
78611;SHT30;67932;50.474;4.436;2023-07-31T07:22:49;16.55;86.83
78611;SHT30;67932;50.474;4.436;2023-07-31T07:25:15;16.56;86.86
78611;SHT30;67932;50.474;4.436;2023-07-31T07:27:41;16.55;86.40
78611;SHT30;67932;50.474;4.436;2023-07-31T07:30:08;16.53;86.35
78611;SHT30;67932;50.474;4.436;2023-07-31T07:32:35;16.53;86.57
78611;SHT30;67932;50.474;4.436;2023-07-31T07:35:01;16.55;86.33
78611;SHT30;67932;50.474;4.436;2023-07-31T07:37:27;16.49;85.99
78611;SHT30;67932;50.474;4.436;2023-07-31T07:39:54;16.50;86.40
78611;SHT30;67932;50.474;4.436;2023-07-31T07:42:20;16.43;87.10
78611;SHT30;67932;50.474;4.436;2023-07-31T07:44:46;16.19;89.80
78611;SHT30;67932;50.474;4.436;2023-07-31T07:47:13;16.05;91.23
78611;SHT30;67932;50.474;4.436;2023-07-31T07:49:39;15.88;91.43
78611;SHT30;67932;50.474;4.436;2023-07-31T07:52:06;15.82;93.24
78611;SHT30;67932;50.474;4.436;2023-07-31T07:54:32;15.72;93.67
78611;SHT30;67932;50.474;4.436;2023-07-31T07:56:58;15.65;94.07
78611;SHT30;67932;50.474;4.436;2023-07-31T07:59:25;15.54;94.70
78611;SHT30;67932;50.474;4.436;2023-07-31T08:01:51;15.48;94.65
78611;SHT30;67932;50.474;4.436;2023-07-31T08:04:17;15.42;95.24
78611;SHT30;67932;50.474;4.436;2023-07-31T08:06:43;15.48;95.22
78611;SHT30;67932;50.474;4.436;2023-07-31T08:09:10;15.51;95.37
78611;SHT30;67932;50.474;4.436;2023-07-31T08:11:36;15.62;95.61
78611;SHT30;67932;50.474;4.436;2023-07-31T08:14:02;15.50;96.19
78611;SHT30;67932;50.474;4.436;2023-07-31T08:16:29;15.40;95.86
78611;SHT30;67932;50.474;4.436;2023-07-31T08:18:55;15.44;95.80
78611;SHT30;67932;50.474;4.436;2023-07-31T08:21:22;15.64;96.01
78611;SHT30;67932;50.474;4.436;2023-07-31T08:23:48;15.66;95.95
78611;SHT30;67932;50.474;4.436;2023-07-31T08:26:18;15.62;95.45
78611;SHT30;67932;50.474;4.436;2023-07-31T08:28:44;15.61;96.00
78611;SHT30;67932;50.474;4.436;2023-07-31T08:31:11;15.61;96.40
78611;SHT30;67932;50.474;4.436;2023-07-31T08:33:38;15.62;96.03
78611;SHT30;67932;50.474;4.436;2023-07-31T08:36:05;15.61;95.70
78611;SHT30;67932;50.474;4.436;2023-07-31T08:38:31;15.65;96.07
78611;SHT30;67932;50.474;4.436;2023-07-31T08:40:58;15.58;95.89
78611;SHT30;67932;50.474;4.436;2023-07-31T08:43:27;15.59;95.80
78611;SHT30;67932;50.474;4.436;2023-07-31T08:45:55;15.52;96.20
78611;SHT30;67932;50.474;4.436;2023-07-31T08:48:23;15.54;95.92
78611;SHT30;67932;50.474;4.436;2023-07-31T08:50:51;15.57;95.80
78611;SHT30;67932;50.474;4.436;2023-07-31T08:53:17;15.61;95.41
78611;SHT30;67932;50.474;4.436;2023-07-31T08:55:44;15.65;95.65
78611;SHT30;67932;50.474;4.436;2023-07-31T08:58:13;15.54;94.75
78611;SHT30;67932;50.474;4.436;2023-07-31T09:00:40;15.72;95.46
78611;SHT30;67932;50.474;4.436;2023-07-31T09:03:14;15.75;95.30
78611;SHT30;67932;50.474;4.436;2023-07-31T09:05:44;15.91;94.77
78611;SHT30;67932;50.474;4.436;2023-07-31T09:08:12;15.92;94.40
78611;SHT30;67932;50.474;4.436;2023-07-31T09:10:42;15.96;94.23
78611;SHT30;67932;50.474;4.436;2023-07-31T09:13:09;15.98;94.11
78611;SHT30;67932;50.474;4.436;2023-07-31T09:15:36;15.99;93.87
78611;SHT30;67932;50.474;4.436;2023-07-31T09:18:04;16.06;94.13
78611;SHT30;67932;50.474;4.436;2023-07-31T09:20:31;16.06;93.54
78611;SHT30;67932;50.474;4.436;2023-07-31T09:23:06;16.15;93.46
78611;SHT30;67932;50.474;4.436;2023-07-31T09:25:33;16.17;93.75
78611;SHT30;67932;50.474;4.436;2023-07-31T09:28:10;16.17;93.53
78611;SHT30;67932;50.474;4.436;2023-07-31T09:30:50;16.20;93.55
78611;SHT30;67932;50.474;4.436;2023-07-31T09:33:19;16.29;92.86
78611;SHT30;67932;50.474;4.436;2023-07-31T09:35:46;16.34;93.08
78611;SHT30;67932;50.474;4.436;2023-07-31T09:38:15;16.45;93.20
78611;SHT30;67932;50.474;4.436;2023-07-31T09:40:44;16.55;92.60
78611;SHT30;67932;50.474;4.436;2023-07-31T09:43:21;16.57;92.18
78611;SHT30;67932;50.474;4.436;2023-07-31T09:45:48;16.74;91.82
78611;SHT30;67932;50.474;4.436;2023-07-31T09:48:16;16.77;91.07
78611;SHT30;67932;50.474;4.436;2023-07-31T09:50:45;16.93;91.32
78611;SHT30;67932;50.474;4.436;2023-07-31T09:53:11;16.94;91.40
78611;SHT30;67932;50.474;4.436;2023-07-31T09:55:39;16.91;90.63
78611;SHT30;67932;50.474;4.436;2023-07-31T09:58:10;16.94;90.54
78611;SHT30;67932;50.474;4.436;2023-07-31T10:00:37;17.03;90.96
78611;SHT30;67932;50.474;4.436;2023-07-31T10:03:11;17.06;90.45
78611;SHT30;67932;50.474;4.436;2023-07-31T10:05:50;17.15;90.12
78611;SHT30;67932;50.474;4.436;2023-07-31T10:08:19;17.18;90.11
78611;SHT30;67932;50.474;4.436;2023-07-31T10:10:47;17.28;89.11
78611;SHT30;67932;50.474;4.436;2023-07-31T10:13:14;17.31;88.80
78611;SHT30;67932;50.474;4.436;2023-07-31T10:15:41;17.32;88.80
78611;SHT30;67932;50.474;4.436;2023-07-31T10:18:09;17.30;88.84
78611;SHT30;67932;50.474;4.436;2023-07-31T10:20:37;17.31;89.26
78611;SHT30;67932;50.474;4.436;2023-07-31T10:23:03;17.28;89.09
78611;SHT30;67932;50.474;4.436;2023-07-31T10:25:30;17.21;89.26
78611;SHT30;67932;50.474;4.436;2023-07-31T10:27:58;17.21;88.14
78611;SHT30;67932;50.474;4.436;2023-07-31T10:30:30;17.21;88.92
78611;SHT30;67932;50.474;4.436;2023-07-31T10:32:58;17.24;88.99
78611;SHT30;67932;50.474;4.436;2023-07-31T10:35:25;17.18;88.82
78611;SHT30;67932;50.474;4.436;2023-07-31T10:37:52;17.28;88.91
78611;SHT30;67932;50.474;4.436;2023-07-31T10:40:23;17.41;88.36
78611;SHT30;67932;50.474;4.436;2023-07-31T10:42:52;17.41;88.01
78611;SHT30;67932;50.474;4.436;2023-07-31T10:45:26;17.41;87.80
78611;SHT30;67932;50.474;4.436;2023-07-31T10:48:32;17.52;87.31
78611;SHT30;67932;50.474;4.436;2023-07-31T10:51:00;17.71;87.14
78611;SHT30;67932;50.474;4.436;2023-07-31T10:53:31;17.92;87.00
78611;SHT30;67932;50.474;4.436;2023-07-31T10:56:06;17.79;85.22
78611;SHT30;67932;50.474;4.436;2023-07-31T10:58:33;17.81;86.19
78611;SHT30;67932;50.474;4.436;2023-07-31T11:01:01;18.00;85.97
78611;SHT30;67932;50.474;4.436;2023-07-31T11:03:49;17.88;85.40
78611;SHT30;67932;50.474;4.436;2023-07-31T11:06:18;17.93;85.78
78611;SHT30;67932;50.474;4.436;2023-07-31T11:08:48;18.08;85.89
78611;SHT30;67932;50.474;4.436;2023-07-31T11:11:16;18.00;85.55
78611;SHT30;67932;50.474;4.436;2023-07-31T11:13:50;18.05;85.80
78611;SHT30;67932;50.474;4.436;2023-07-31T11:16:19;18.02;85.42
78611;SHT30;67932;50.474;4.436;2023-07-31T11:18:47;18.00;85.43
78611;SHT30;67932;50.474;4.436;2023-07-31T11:21:15;18.10;85.57
78611;SHT30;67932;50.474;4.436;2023-07-31T11:23:46;18.09;85.12
78611;SHT30;67932;50.474;4.436;2023-07-31T11:26:12;18.02;85.24
78611;SHT30;67932;50.474;4.436;2023-07-31T11:28:38;18.00;85.71
78611;SHT30;67932;50.474;4.436;2023-07-31T11:31:05;17.98;85.43
78611;SHT30;67932;50.474;4.436;2023-07-31T11:33:31;18.06;85.43
78611;SHT30;67932;50.474;4.436;2023-07-31T11:35:58;18.08;85.89
78611;SHT30;67932;50.474;4.436;2023-07-31T11:38:32;18.16;84.59
78611;SHT30;67932;50.474;4.436;2023-07-31T11:41:01;18.17;84.28
78611;SHT30;67932;50.474;4.436;2023-07-31T11:43:31;18.37;84.84
78611;SHT30;67932;50.474;4.436;2023-07-31T11:45:59;18.50;84.60
78611;SHT30;67932;50.474;4.436;2023-07-31T11:48:31;18.50;84.05
78611;SHT30;67932;50.474;4.436;2023-07-31T11:51:00;18.52;83.89
78611;SHT30;67932;50.474;4.436;2023-07-31T11:53:36;18.43;83.86
78611;SHT30;67932;50.474;4.436;2023-07-31T11:56:04;18.42;83.34
78611;SHT30;67932;50.474;4.436;2023-07-31T11:58:35;18.56;83.55
78611;SHT30;67932;50.474;4.436;2023-07-31T12:01:02;18.65;83.91
78611;SHT30;67932;50.474;4.436;2023-07-31T12:03:29;18.61;84.03
78611;SHT30;67932;50.474;4.436;2023-07-31T12:05:55;18.56;83.70
78611;SHT30;67932;50.474;4.436;2023-07-31T12:08:23;18.71;83.73
78611;SHT30;67932;50.474;4.436;2023-07-31T12:11:01;18.74;83.09
78611;SHT30;67932;50.474;4.436;2023-07-31T12:13:28;18.70;83.44
78611;SHT30;67932;50.474;4.436;2023-07-31T12:15:56;18.67;82.99
78611;SHT30;67932;50.474;4.436;2023-07-31T12:18:27;18.54;83.20
78611;SHT30;67932;50.474;4.436;2023-07-31T12:20:59;18.54;83.81
78611;SHT30;67932;50.474;4.436;2023-07-31T12:23:27;18.53;83.59
78611;SHT30;67932;50.474;4.436;2023-07-31T12:28:47;18.43;83.96
78611;SHT30;67932;50.474;4.436;2023-07-31T12:31:20;18.44;83.93
78611;SHT30;67932;50.474;4.436;2023-07-31T12:33:48;18.34;84.41
78611;SHT30;67932;50.474;4.436;2023-07-31T12:36:23;18.39;84.17
78611;SHT30;67932;50.474;4.436;2023-07-31T12:38:50;18.39;84.64
78611;SHT30;67932;50.474;4.436;2023-07-31T12:41:17;18.29;85.53
78611;SHT30;67932;50.474;4.436;2023-07-31T12:43:45;18.28;86.92
78611;SHT30;67932;50.474;4.436;2023-07-31T12:46:11;18.14;88.14
78611;SHT30;67932;50.474;4.436;2023-07-31T12:48:39;18.12;88.72
78611;SHT30;67932;50.474;4.436;2023-07-31T12:51:06;18.12;88.47
78611;SHT30;67932;50.474;4.436;2023-07-31T12:53:33;18.08;88.91
78611;SHT30;67932;50.474;4.436;2023-07-31T12:55:59;17.90;88.55
78611;SHT30;67932;50.474;4.436;2023-07-31T12:58:26;17.89;89.17
78611;SHT30;67932;50.474;4.436;2023-07-31T13:00:52;17.90;89.23
78611;SHT30;67932;50.474;4.436;2023-07-31T13:03:18;17.79;87.96
78611;SHT30;67932;50.474;4.436;2023-07-31T13:05:45;17.71;89.52
78611;SHT30;67932;50.474;4.436;2023-07-31T13:08:11;17.61;89.60
78611;SHT30;67932;50.474;4.436;2023-07-31T13:10:37;17.55;91.52
78611;SHT30;67932;50.474;4.436;2023-07-31T13:13:04;17.49;92.37
78611;SHT30;67932;50.474;4.436;2023-07-31T13:15:30;17.39;91.97
78611;SHT30;67932;50.474;4.436;2023-07-31T13:17:56;17.34;92.93
78611;SHT30;67932;50.474;4.436;2023-07-31T13:20:23;17.25;92.91
78611;SHT30;67932;50.474;4.436;2023-07-31T13:22:49;17.07;92.68
78611;SHT30;67932;50.474;4.436;2023-07-31T13:25:15;17.00;93.13
78611;SHT30;67932;50.474;4.436;2023-07-31T13:27:41;17.01;93.67
78611;SHT30;67932;50.474;4.436;2023-07-31T13:30:08;17.03;93.54
78611;SHT30;67932;50.474;4.436;2023-07-31T13:32:34;17.03;93.94
78611;SHT30;67932;50.474;4.436;2023-07-31T13:35:05;16.93;93.22
78611;SHT30;67932;50.474;4.436;2023-07-31T13:37:32;17.00;93.09
78611;SHT30;67932;50.474;4.436;2023-07-31T13:39:58;17.00;93.94
78611;SHT30;67932;50.474;4.436;2023-07-31T13:42:24;17.04;94.50
78611;SHT30;67932;50.474;4.436;2023-07-31T13:44:50;17.00;94.20
78611;SHT30;67932;50.474;4.436;2023-07-31T13:47:16;16.94;94.82
78611;SHT30;67932;50.474;4.436;2023-07-31T13:49:43;16.88;94.91
78611;SHT30;67932;50.474;4.436;2023-07-31T13:52:09;16.83;94.66
78611;SHT30;67932;50.474;4.436;2023-07-31T13:54:35;16.81;94.82
78611;SHT30;67932;50.474;4.436;2023-07-31T13:57:02;16.88;95.43
78611;SHT30;67932;50.474;4.436;2023-07-31T13:59:28;16.85;95.11
78611;SHT30;67932;50.474;4.436;2023-07-31T14:01:54;16.91;95.89
78611;SHT30;67932;50.474;4.436;2023-07-31T14:04:20;16.91;95.52
78611;SHT30;67932;50.474;4.436;2023-07-31T14:06:47;16.93;95.41
78611;SHT30;67932;50.474;4.436;2023-07-31T14:09:14;16.93;95.50
78611;SHT30;67932;50.474;4.436;2023-07-31T14:11:41;16.91;95.70
78611;SHT30;67932;50.474;4.436;2023-07-31T14:14:08;16.93;95.59
78611;SHT30;67932;50.474;4.436;2023-07-31T14:16:34;17.01;95.51
78611;SHT30;67932;50.474;4.436;2023-07-31T14:19:01;17.08;95.67
78611;SHT30;67932;50.474;4.436;2023-07-31T14:21:27;17.07;95.83
78611;SHT30;67932;50.474;4.436;2023-07-31T14:23:53;17.03;95.43
78611;SHT30;67932;50.474;4.436;2023-07-31T14:26:19;17.07;95.40
78611;SHT30;67932;50.474;4.436;2023-07-31T14:28:46;17.15;95.69
78611;SHT30;67932;50.474;4.436;2023-07-31T14:31:12;17.11;94.86
78611;SHT30;67932;50.474;4.436;2023-07-31T14:33:38;17.11;95.31
78611;SHT30;67932;50.474;4.436;2023-07-31T14:36:04;17.06;94.94
78611;SHT30;67932;50.474;4.436;2023-07-31T14:38:31;17.04;95.62
78611;SHT30;67932;50.474;4.436;2023-07-31T14:40:57;17.00;95.54
78611;SHT30;67932;50.474;4.436;2023-07-31T14:43:23;17.01;95.79
78611;SHT30;67932;50.474;4.436;2023-07-31T14:45:49;16.93;96.18
78611;SHT30;67932;50.474;4.436;2023-07-31T14:48:16;16.93;96.06
78611;SHT30;67932;50.474;4.436;2023-07-31T14:50:42;16.94;96.00
78611;SHT30;67932;50.474;4.436;2023-07-31T14:53:08;16.91;96.29
78611;SHT30;67932;50.474;4.436;2023-07-31T14:55:34;16.90;96.83
78611;SHT30;67932;50.474;4.436;2023-07-31T14:58:01;16.88;96.87
78611;SHT30;67932;50.474;4.436;2023-07-31T15:00:27;16.80;96.42
78611;SHT30;67932;50.474;4.436;2023-07-31T15:02:54;16.81;96.92
78611;SHT30;67932;50.474;4.436;2023-07-31T15:05:20;16.84;97.52
78611;SHT30;67932;50.474;4.436;2023-07-31T15:07:46;16.79;97.36
78611;SHT30;67932;50.474;4.436;2023-07-31T15:10:12;16.74;96.90
78611;SHT30;67932;50.474;4.436;2023-07-31T15:12:40;16.74;96.98
78611;SHT30;67932;50.474;4.436;2023-07-31T15:15:08;16.83;97.27
78611;SHT30;67932;50.474;4.436;2023-07-31T15:17:34;16.71;96.71
78611;SHT30;67932;50.474;4.436;2023-07-31T15:20:01;16.77;97.09
78611;SHT30;67932;50.474;4.436;2023-07-31T15:22:27;16.76;97.48
78611;SHT30;67932;50.474;4.436;2023-07-31T15:24:53;16.76;97.55
78611;SHT30;67932;50.474;4.436;2023-07-31T15:27:20;16.74;97.36
78611;SHT30;67932;50.474;4.436;2023-07-31T15:29:46;16.76;97.50
78611;SHT30;67932;50.474;4.436;2023-07-31T15:32:12;16.76;97.68
78611;SHT30;67932;50.474;4.436;2023-07-31T15:34:39;16.74;97.58
78611;SHT30;67932;50.474;4.436;2023-07-31T15:37:05;16.79;97.79
78611;SHT30;67932;50.474;4.436;2023-07-31T15:39:31;16.74;97.59
78611;SHT30;67932;50.474;4.436;2023-07-31T15:41:57;16.79;97.57